sensor_id;sensor_type;location;lat;lon;timestamp;P1;durP1;ratioP1;P2;durP2;ratioP2
6862;SDS011;3470;48.738;9.616;2023-04-06T00:01:36;7.60;;;6.60;;
6862;SDS011;3470;48.738;9.616;2023-04-06T00:04:02;11.07;;;7.53;;
6862;SDS011;3470;48.738;9.616;2023-04-06T00:06:28;9.17;;;7.73;;
6862;SDS011;3470;48.738;9.616;2023-04-06T00:08:55;10.03;;;7.13;;
6862;SDS011;3470;48.738;9.616;2023-04-06T00:11:21;12.10;;;7.07;;
6862;SDS011;3470;48.738;9.616;2023-04-06T00:13:47;9.70;;;7.70;;
6862;SDS011;3470;48.738;9.616;2023-04-06T00:16:12;10.83;;;7.47;;
6862;SDS011;3470;48.738;9.616;2023-04-06T00:18:38;10.10;;;7.27;;
6862;SDS011;3470;48.738;9.616;2023-04-06T00:21:04;9.47;;;7.23;;
6862;SDS011;3470;48.738;9.616;2023-04-06T00:23:30;9.53;;;7.77;;
6862;SDS011;3470;48.738;9.616;2023-04-06T00:25:55;11.20;;;8.00;;
6862;SDS011;3470;48.738;9.616;2023-04-06T00:28:21;11.50;;;8.47;;
6862;SDS011;3470;48.738;9.616;2023-04-06T00:30:50;12.40;;;7.97;;
6862;SDS011;3470;48.738;9.616;2023-04-06T00:33:18;10.07;;;8.03;;
6862;SDS011;3470;48.738;9.616;2023-04-06T00:35:44;11.37;;;8.40;;
6862;SDS011;3470;48.738;9.616;2023-04-06T00:38:10;13.77;;;7.77;;
6862;SDS011;3470;48.738;9.616;2023-04-06T00:40:36;10.00;;;7.50;;
6862;SDS011;3470;48.738;9.616;2023-04-06T00:43:02;10.67;;;7.70;;
6862;SDS011;3470;48.738;9.616;2023-04-06T00:45:27;10.80;;;7.37;;
6862;SDS011;3470;48.738;9.616;2023-04-06T00:47:53;11.57;;;7.97;;
6862;SDS011;3470;48.738;9.616;2023-04-06T00:50:19;11.17;;;7.93;;
6862;SDS011;3470;48.738;9.616;2023-04-06T00:52:45;9.00;;;7.20;;
6862;SDS011;3470;48.738;9.616;2023-04-06T00:55:10;10.37;;;7.40;;
6862;SDS011;3470;48.738;9.616;2023-04-06T00:57:36;10.13;;;7.43;;
6862;SDS011;3470;48.738;9.616;2023-04-06T01:00:02;9.80;;;7.60;;
6862;SDS011;3470;48.738;9.616;2023-04-06T01:02:28;9.17;;;7.63;;
6862;SDS011;3470;48.738;9.616;2023-04-06T01:04:54;10.27;;;7.03;;
6862;SDS011;3470;48.738;9.616;2023-04-06T01:07:20;8.97;;;7.03;;
6862;SDS011;3470;48.738;9.616;2023-04-06T01:09:45;8.27;;;7.30;;
6862;SDS011;3470;48.738;9.616;2023-04-06T01:12:11;8.47;;;7.20;;
6862;SDS011;3470;48.738;9.616;2023-04-06T01:14:37;10.40;;;7.97;;
6862;SDS011;3470;48.738;9.616;2023-04-06T01:17:02;10.07;;;8.27;;
6862;SDS011;3470;48.738;9.616;2023-04-06T01:19:28;10.00;;;8.03;;
6862;SDS011;3470;48.738;9.616;2023-04-06T01:21:54;10.40;;;8.00;;
6862;SDS011;3470;48.738;9.616;2023-04-06T01:24:20;9.73;;;7.77;;
6862;SDS011;3470;48.738;9.616;2023-04-06T01:26:46;9.27;;;7.40;;
6862;SDS011;3470;48.738;9.616;2023-04-06T01:29:11;8.57;;;7.60;;
6862;SDS011;3470;48.738;9.616;2023-04-06T01:31:38;9.30;;;7.13;;
6862;SDS011;3470;48.738;9.616;2023-04-06T01:34:04;8.97;;;7.53;;
6862;SDS011;3470;48.738;9.616;2023-04-06T01:36:30;9.87;;;8.03;;
6862;SDS011;3470;48.738;9.616;2023-04-06T01:38:56;10.73;;;7.90;;
6862;SDS011;3470;48.738;9.616;2023-04-06T01:41:21;11.20;;;7.47;;
6862;SDS011;3470;48.738;9.616;2023-04-06T01:43:47;11.30;;;7.87;;
6862;SDS011;3470;48.738;9.616;2023-04-06T01:46:14;10.07;;;7.20;;
6862;SDS011;3470;48.738;9.616;2023-04-06T01:48:39;9.17;;;7.70;;
6862;SDS011;3470;48.738;9.616;2023-04-06T01:51:05;9.53;;;7.77;;
6862;SDS011;3470;48.738;9.616;2023-04-06T01:53:31;8.93;;;8.03;;
6862;SDS011;3470;48.738;9.616;2023-04-06T01:55:57;9.67;;;7.40;;
6862;SDS011;3470;48.738;9.616;2023-04-06T01:58:22;9.93;;;7.73;;
6862;SDS011;3470;48.738;9.616;2023-04-06T02:00:48;7.67;;;6.73;;
6862;SDS011;3470;48.738;9.616;2023-04-06T02:03:13;8.17;;;7.33;;
6862;SDS011;3470;48.738;9.616;2023-04-06T02:05:39;8.90;;;7.17;;
6862;SDS011;3470;48.738;9.616;2023-04-06T02:08:05;10.40;;;7.53;;
6862;SDS011;3470;48.738;9.616;2023-04-06T02:10:31;8.67;;;7.57;;
6862;SDS011;3470;48.738;9.616;2023-04-06T02:12:58;11.03;;;7.57;;
6862;SDS011;3470;48.738;9.616;2023-04-06T02:15:24;10.27;;;7.13;;
6862;SDS011;3470;48.738;9.616;2023-04-06T02:17:50;13.43;;;7.83;;
6862;SDS011;3470;48.738;9.616;2023-04-06T02:20:16;8.60;;;7.27;;
6862;SDS011;3470;48.738;9.616;2023-04-06T02:22:42;9.70;;;7.50;;
6862;SDS011;3470;48.738;9.616;2023-04-06T02:25:08;11.20;;;7.87;;
6862;SDS011;3470;48.738;9.616;2023-04-06T02:27:34;8.70;;;7.07;;
6862;SDS011;3470;48.738;9.616;2023-04-06T02:30:01;10.87;;;8.33;;
6862;SDS011;3470;48.738;9.616;2023-04-06T02:32:27;11.57;;;8.10;;
6862;SDS011;3470;48.738;9.616;2023-04-06T02:34:52;9.47;;;8.03;;
6862;SDS011;3470;48.738;9.616;2023-04-06T02:37:18;9.57;;;7.20;;
6862;SDS011;3470;48.738;9.616;2023-04-06T02:39:44;8.77;;;7.87;;
6862;SDS011;3470;48.738;9.616;2023-04-06T02:42:10;8.53;;;7.00;;
6862;SDS011;3470;48.738;9.616;2023-04-06T02:44:36;8.13;;;7.13;;
6862;SDS011;3470;48.738;9.616;2023-04-06T02:47:01;12.17;;;7.80;;
6862;SDS011;3470;48.738;9.616;2023-04-06T02:49:27;9.73;;;7.90;;
6862;SDS011;3470;48.738;9.616;2023-04-06T02:51:52;11.50;;;7.70;;
6862;SDS011;3470;48.738;9.616;2023-04-06T02:54:18;10.87;;;8.13;;
6862;SDS011;3470;48.738;9.616;2023-04-06T02:56:43;9.43;;;7.90;;
6862;SDS011;3470;48.738;9.616;2023-04-06T02:59:09;10.77;;;7.83;;
6862;SDS011;3470;48.738;9.616;2023-04-06T03:01:35;9.90;;;8.23;;
6862;SDS011;3470;48.738;9.616;2023-04-06T03:04:01;9.13;;;7.57;;
6862;SDS011;3470;48.738;9.616;2023-04-06T03:06:27;9.90;;;8.17;;
6862;SDS011;3470;48.738;9.616;2023-04-06T03:08:52;13.00;;;8.37;;
6862;SDS011;3470;48.738;9.616;2023-04-06T03:11:18;11.80;;;8.43;;
6862;SDS011;3470;48.738;9.616;2023-04-06T03:13:44;11.80;;;8.30;;
6862;SDS011;3470;48.738;9.616;2023-04-06T03:16:10;12.20;;;7.57;;
6862;SDS011;3470;48.738;9.616;2023-04-06T03:18:35;10.10;;;8.40;;
6862;SDS011;3470;48.738;9.616;2023-04-06T03:21:01;11.33;;;8.00;;
6862;SDS011;3470;48.738;9.616;2023-04-06T03:23:27;12.03;;;9.63;;
6862;SDS011;3470;48.738;9.616;2023-04-06T03:25:52;12.17;;;8.50;;
6862;SDS011;3470;48.738;9.616;2023-04-06T03:28:18;13.50;;;9.20;;
6862;SDS011;3470;48.738;9.616;2023-04-06T03:30:44;10.63;;;8.80;;
6862;SDS011;3470;48.738;9.616;2023-04-06T03:33:10;11.27;;;8.93;;
6862;SDS011;3470;48.738;9.616;2023-04-06T03:35:36;12.50;;;8.30;;
6862;SDS011;3470;48.738;9.616;2023-04-06T03:38:02;11.27;;;9.03;;
6862;SDS011;3470;48.738;9.616;2023-04-06T03:40:28;12.27;;;9.07;;
6862;SDS011;3470;48.738;9.616;2023-04-06T03:42:54;13.57;;;9.50;;
6862;SDS011;3470;48.738;9.616;2023-04-06T03:45:19;12.47;;;9.57;;
6862;SDS011;3470;48.738;9.616;2023-04-06T03:47:45;12.67;;;9.30;;
6862;SDS011;3470;48.738;9.616;2023-04-06T03:50:11;13.10;;;9.60;;
6862;SDS011;3470;48.738;9.616;2023-04-06T03:52:36;13.63;;;9.63;;
6862;SDS011;3470;48.738;9.616;2023-04-06T03:55:02;13.00;;;9.10;;
6862;SDS011;3470;48.738;9.616;2023-04-06T03:57:28;13.57;;;9.87;;
6862;SDS011;3470;48.738;9.616;2023-04-06T03:59:54;13.17;;;10.17;;
6862;SDS011;3470;48.738;9.616;2023-04-06T04:02:19;12.90;;;9.17;;
6862;SDS011;3470;48.738;9.616;2023-04-06T04:04:45;15.57;;;10.53;;
6862;SDS011;3470;48.738;9.616;2023-04-06T04:07:10;14.90;;;10.30;;
6862;SDS011;3470;48.738;9.616;2023-04-06T04:09:36;13.10;;;10.17;;
6862;SDS011;3470;48.738;9.616;2023-04-06T04:12:02;12.50;;;10.20;;
6862;SDS011;3470;48.738;9.616;2023-04-06T04:14:28;14.10;;;10.63;;
6862;SDS011;3470;48.738;9.616;2023-04-06T04:16:53;14.50;;;10.47;;
6862;SDS011;3470;48.738;9.616;2023-04-06T04:19:19;13.80;;;10.30;;
6862;SDS011;3470;48.738;9.616;2023-04-06T04:21:45;14.83;;;11.73;;
6862;SDS011;3470;48.738;9.616;2023-04-06T04:24:12;14.80;;;10.97;;
6862;SDS011;3470;48.738;9.616;2023-04-06T04:26:38;13.93;;;11.23;;
6862;SDS011;3470;48.738;9.616;2023-04-06T04:29:04;16.27;;;12.07;;
6862;SDS011;3470;48.738;9.616;2023-04-06T04:31:30;14.43;;;11.23;;
6862;SDS011;3470;48.738;9.616;2023-04-06T04:33:56;15.97;;;11.80;;
6862;SDS011;3470;48.738;9.616;2023-04-06T04:36:22;20.40;;;12.37;;
6862;SDS011;3470;48.738;9.616;2023-04-06T04:38:50;14.30;;;11.47;;
6862;SDS011;3470;48.738;9.616;2023-04-06T04:41:16;16.17;;;13.47;;
6862;SDS011;3470;48.738;9.616;2023-04-06T04:43:42;15.07;;;12.30;;
6862;SDS011;3470;48.738;9.616;2023-04-06T04:46:07;19.17;;;14.20;;
6862;SDS011;3470;48.738;9.616;2023-04-06T04:48:33;14.57;;;11.60;;
6862;SDS011;3470;48.738;9.616;2023-04-06T04:50:59;16.00;;;12.20;;
6862;SDS011;3470;48.738;9.616;2023-04-06T04:53:25;16.63;;;12.07;;
6862;SDS011;3470;48.738;9.616;2023-04-06T04:55:50;15.37;;;12.30;;
6862;SDS011;3470;48.738;9.616;2023-04-06T04:58:16;17.23;;;11.87;;
6862;SDS011;3470;48.738;9.616;2023-04-06T05:00:43;15.73;;;12.13;;
6862;SDS011;3470;48.738;9.616;2023-04-06T05:03:09;18.90;;;11.57;;
6862;SDS011;3470;48.738;9.616;2023-04-06T05:05:45;16.57;;;11.10;;
6862;SDS011;3470;48.738;9.616;2023-04-06T05:08:11;15.60;;;10.87;;
6862;SDS011;3470;48.738;9.616;2023-04-06T05:10:37;15.47;;;11.67;;
6862;SDS011;3470;48.738;9.616;2023-04-06T05:13:02;16.87;;;11.20;;
6862;SDS011;3470;48.738;9.616;2023-04-06T05:15:28;15.57;;;11.73;;
6862;SDS011;3470;48.738;9.616;2023-04-06T05:17:53;22.60;;;19.63;;
6862;SDS011;3470;48.738;9.616;2023-04-06T05:20:19;15.87;;;11.53;;
6862;SDS011;3470;48.738;9.616;2023-04-06T05:22:48;15.73;;;11.57;;
6862;SDS011;3470;48.738;9.616;2023-04-06T05:25:14;15.87;;;11.33;;
6862;SDS011;3470;48.738;9.616;2023-04-06T05:27:40;13.87;;;11.53;;
6862;SDS011;3470;48.738;9.616;2023-04-06T05:30:06;15.40;;;11.07;;
6862;SDS011;3470;48.738;9.616;2023-04-06T05:32:32;16.10;;;11.10;;
6862;SDS011;3470;48.738;9.616;2023-04-06T05:34:59;12.93;;;10.33;;
6862;SDS011;3470;48.738;9.616;2023-04-06T05:37:24;15.50;;;11.30;;
6862;SDS011;3470;48.738;9.616;2023-04-06T05:39:50;14.47;;;11.50;;
6862;SDS011;3470;48.738;9.616;2023-04-06T05:42:16;14.00;;;11.03;;
6862;SDS011;3470;48.738;9.616;2023-04-06T05:44:42;16.33;;;11.43;;
6862;SDS011;3470;48.738;9.616;2023-04-06T05:47:07;13.33;;;11.10;;
6862;SDS011;3470;48.738;9.616;2023-04-06T05:49:33;14.77;;;11.87;;
6862;SDS011;3470;48.738;9.616;2023-04-06T05:51:59;12.17;;;10.30;;
6862;SDS011;3470;48.738;9.616;2023-04-06T05:54:25;13.37;;;10.53;;
6862;SDS011;3470;48.738;9.616;2023-04-06T05:56:51;13.27;;;10.17;;
6862;SDS011;3470;48.738;9.616;2023-04-06T05:59:16;12.87;;;10.17;;
6862;SDS011;3470;48.738;9.616;2023-04-06T06:01:42;14.30;;;9.90;;
6862;SDS011;3470;48.738;9.616;2023-04-06T06:04:08;12.80;;;9.00;;
6862;SDS011;3470;48.738;9.616;2023-04-06T06:06:33;11.37;;;8.67;;
6862;SDS011;3470;48.738;9.616;2023-04-06T06:08:59;10.97;;;8.63;;
6862;SDS011;3470;48.738;9.616;2023-04-06T06:11:26;11.83;;;9.60;;
6862;SDS011;3470;48.738;9.616;2023-04-06T06:13:52;10.73;;;9.63;;
6862;SDS011;3470;48.738;9.616;2023-04-06T06:16:18;11.30;;;8.80;;
6862;SDS011;3470;48.738;9.616;2023-04-06T06:18:44;11.90;;;8.07;;
6862;SDS011;3470;48.738;9.616;2023-04-06T06:21:10;11.27;;;8.60;;
6862;SDS011;3470;48.738;9.616;2023-04-06T06:23:39;14.50;;;10.10;;
6862;SDS011;3470;48.738;9.616;2023-04-06T06:26:04;9.97;;;8.77;;
6862;SDS011;3470;48.738;9.616;2023-04-06T06:28:30;22.57;;;20.30;;
6862;SDS011;3470;48.738;9.616;2023-04-06T06:30:56;9.57;;;8.57;;
6862;SDS011;3470;48.738;9.616;2023-04-06T06:33:22;12.37;;;8.50;;
6862;SDS011;3470;48.738;9.616;2023-04-06T06:35:47;11.23;;;8.27;;
6862;SDS011;3470;48.738;9.616;2023-04-06T06:38:13;12.47;;;9.17;;
6862;SDS011;3470;48.738;9.616;2023-04-06T06:40:40;13.53;;;10.33;;
6862;SDS011;3470;48.738;9.616;2023-04-06T06:43:06;12.10;;;8.67;;
6862;SDS011;3470;48.738;9.616;2023-04-06T06:45:32;14.03;;;11.10;;
6862;SDS011;3470;48.738;9.616;2023-04-06T06:47:57;11.87;;;9.27;;
6862;SDS011;3470;48.738;9.616;2023-04-06T06:50:23;11.80;;;10.60;;
6862;SDS011;3470;48.738;9.616;2023-04-06T06:52:49;17.93;;;14.80;;
6862;SDS011;3470;48.738;9.616;2023-04-06T06:55:15;22.63;;;19.13;;
6862;SDS011;3470;48.738;9.616;2023-04-06T06:57:40;12.23;;;9.87;;
6862;SDS011;3470;48.738;9.616;2023-04-06T07:00:08;9.57;;;8.67;;
6862;SDS011;3470;48.738;9.616;2023-04-06T07:02:35;10.33;;;8.90;;
6862;SDS011;3470;48.738;9.616;2023-04-06T07:05:01;15.53;;;13.97;;
6862;SDS011;3470;48.738;9.616;2023-04-06T07:07:27;20.80;;;18.70;;
6862;SDS011;3470;48.738;9.616;2023-04-06T07:09:53;29.67;;;22.10;;
6862;SDS011;3470;48.738;9.616;2023-04-06T07:12:19;17.30;;;15.60;;
6862;SDS011;3470;48.738;9.616;2023-04-06T07:14:44;27.17;;;22.57;;
6862;SDS011;3470;48.738;9.616;2023-04-06T07:17:10;10.07;;;9.00;;
6862;SDS011;3470;48.738;9.616;2023-04-06T07:19:36;11.50;;;9.13;;
6862;SDS011;3470;48.738;9.616;2023-04-06T07:22:01;11.98;;;8.88;;
6862;SDS011;3470;48.738;9.616;2023-04-06T07:24:28;10.60;;;9.10;;
6862;SDS011;3470;48.738;9.616;2023-04-06T07:26:53;10.47;;;8.87;;
6862;SDS011;3470;48.738;9.616;2023-04-06T07:29:20;9.77;;;8.77;;
6862;SDS011;3470;48.738;9.616;2023-04-06T07:31:46;11.23;;;8.90;;
6862;SDS011;3470;48.738;9.616;2023-04-06T07:34:11;11.18;;;9.30;;
6862;SDS011;3470;48.738;9.616;2023-04-06T07:36:37;10.95;;;8.98;;
6862;SDS011;3470;48.738;9.616;2023-04-06T07:39:03;10.27;;;9.27;;
6862;SDS011;3470;48.738;9.616;2023-04-06T07:41:28;9.77;;;8.77;;
6862;SDS011;3470;48.738;9.616;2023-04-06T07:43:54;10.65;;;9.25;;
6862;SDS011;3470;48.738;9.616;2023-04-06T07:46:20;8.48;;;7.72;;
6862;SDS011;3470;48.738;9.616;2023-04-06T07:48:46;8.88;;;7.68;;
6862;SDS011;3470;48.738;9.616;2023-04-06T07:51:11;8.68;;;7.85;;
6862;SDS011;3470;48.738;9.616;2023-04-06T07:53:39;10.52;;;8.50;;
6862;SDS011;3470;48.738;9.616;2023-04-06T07:56:05;8.93;;;8.02;;
6862;SDS011;3470;48.738;9.616;2023-04-06T07:58:31;9.05;;;8.15;;
6862;SDS011;3470;48.738;9.616;2023-04-06T08:00:56;9.80;;;8.23;;
6862;SDS011;3470;48.738;9.616;2023-04-06T08:03:22;8.32;;;7.53;;
6862;SDS011;3470;48.738;9.616;2023-04-06T08:05:50;8.75;;;7.88;;
6862;SDS011;3470;48.738;9.616;2023-04-06T08:08:20;8.93;;;8.00;;
6862;SDS011;3470;48.738;9.616;2023-04-06T08:10:46;9.32;;;8.30;;
6862;SDS011;3470;48.738;9.616;2023-04-06T08:13:13;9.52;;;8.63;;
6862;SDS011;3470;48.738;9.616;2023-04-06T08:15:39;9.80;;;8.80;;
6862;SDS011;3470;48.738;9.616;2023-04-06T08:18:05;8.68;;;7.75;;
6862;SDS011;3470;48.738;9.616;2023-04-06T08:20:31;8.38;;;7.57;;
6862;SDS011;3470;48.738;9.616;2023-04-06T08:22:56;10.93;;;8.90;;
6862;SDS011;3470;48.738;9.616;2023-04-06T08:25:22;8.73;;;7.90;;
6862;SDS011;3470;48.738;9.616;2023-04-06T08:27:47;9.43;;;8.38;;
6862;SDS011;3470;48.738;9.616;2023-04-06T08:30:13;9.30;;;8.40;;
6862;SDS011;3470;48.738;9.616;2023-04-06T08:32:40;9.13;;;8.25;;
6862;SDS011;3470;48.738;9.616;2023-04-06T08:35:06;9.20;;;8.30;;
6862;SDS011;3470;48.738;9.616;2023-04-06T08:37:32;8.98;;;8.07;;
6862;SDS011;3470;48.738;9.616;2023-04-06T08:39:58;9.35;;;8.55;;
6862;SDS011;3470;48.738;9.616;2023-04-06T08:42:25;9.10;;;7.90;;
6862;SDS011;3470;48.738;9.616;2023-04-06T08:44:53;10.30;;;8.40;;
6862;SDS011;3470;48.738;9.616;2023-04-06T08:47:20;9.07;;;8.23;;
6862;SDS011;3470;48.738;9.616;2023-04-06T08:49:46;9.25;;;8.43;;
6862;SDS011;3470;48.738;9.616;2023-04-06T08:52:12;11.45;;;9.23;;
6862;SDS011;3470;48.738;9.616;2023-04-06T08:54:41;10.15;;;8.48;;
6862;SDS011;3470;48.738;9.616;2023-04-06T08:57:07;10.13;;;9.20;;
6862;SDS011;3470;48.738;9.616;2023-04-06T08:59:33;9.25;;;8.40;;
6862;SDS011;3470;48.738;9.616;2023-04-06T09:02:00;10.38;;;9.38;;
6862;SDS011;3470;48.738;9.616;2023-04-06T09:04:30;10.18;;;9.10;;
6862;SDS011;3470;48.738;9.616;2023-04-06T09:06:57;10.00;;;8.95;;
6862;SDS011;3470;48.738;9.616;2023-04-06T09:09:22;9.80;;;8.80;;
6862;SDS011;3470;48.738;9.616;2023-04-06T09:11:50;9.35;;;8.50;;
6862;SDS011;3470;48.738;9.616;2023-04-06T09:14:16;9.45;;;8.55;;
6862;SDS011;3470;48.738;9.616;2023-04-06T09:16:57;9.60;;;8.60;;
6862;SDS011;3470;48.738;9.616;2023-04-06T09:19:23;9.57;;;8.65;;
6862;SDS011;3470;48.738;9.616;2023-04-06T09:21:48;10.02;;;9.07;;
6862;SDS011;3470;48.738;9.616;2023-04-06T09:24:14;10.63;;;8.90;;
6862;SDS011;3470;48.738;9.616;2023-04-06T09:26:45;9.80;;;8.80;;
6862;SDS011;3470;48.738;9.616;2023-04-06T09:29:21;10.15;;;9.07;;
6862;SDS011;3470;48.738;9.616;2023-04-06T09:31:48;10.10;;;9.20;;
6862;SDS011;3470;48.738;9.616;2023-04-06T09:34:21;9.30;;;8.40;;
6862;SDS011;3470;48.738;9.616;2023-04-06T09:36:48;8.25;;;7.47;;
6862;SDS011;3470;48.738;9.616;2023-04-06T09:39:14;8.20;;;6.15;;
6862;SDS011;3470;48.738;9.616;2023-04-06T09:41:39;7.25;;;6.65;;
6862;SDS011;3470;48.738;9.616;2023-04-06T09:46:32;6.65;;;6.00;;
6862;SDS011;3470;48.738;9.616;2023-04-06T09:49:00;5.90;;;5.30;;
6862;SDS011;3470;48.738;9.616;2023-04-06T09:51:30;6.72;;;6.13;;
6862;SDS011;3470;48.738;9.616;2023-04-06T09:54:02;7.10;;;6.40;;
6862;SDS011;3470;48.738;9.616;2023-04-06T10:02:27;6.43;;;4.82;;
6862;SDS011;3470;48.738;9.616;2023-04-06T10:05:12;5.60;;;5.10;;
6862;SDS011;3470;48.738;9.616;2023-04-06T10:07:48;5.43;;;4.93;;
6862;SDS011;3470;48.738;9.616;2023-04-06T10:10:16;5.45;;;4.97;;
6862;SDS011;3470;48.738;9.616;2023-04-06T10:12:41;6.20;;;5.63;;
6862;SDS011;3470;48.738;9.616;2023-04-06T10:15:09;5.82;;;5.28;;
6862;SDS011;3470;48.738;9.616;2023-04-06T10:17:35;6.75;;;5.40;;
6862;SDS011;3470;48.738;9.616;2023-04-06T10:20:09;6.28;;;5.68;;
6862;SDS011;3470;48.738;9.616;2023-04-06T10:22:49;7.93;;;6.22;;
6862;SDS011;3470;48.738;9.616;2023-04-06T10:25:30;6.88;;;6.25;;
6862;SDS011;3470;48.738;9.616;2023-04-06T10:28:01;6.93;;;6.22;;
6862;SDS011;3470;48.738;9.616;2023-04-06T10:30:29;6.78;;;6.18;;
6862;SDS011;3470;48.738;9.616;2023-04-06T10:32:55;7.78;;;6.97;;
6862;SDS011;3470;48.738;9.616;2023-04-06T10:35:21;6.93;;;6.28;;
6862;SDS011;3470;48.738;9.616;2023-04-06T10:37:49;7.50;;;6.80;;
6862;SDS011;3470;48.738;9.616;2023-04-06T10:40:25;6.47;;;5.88;;
6862;SDS011;3470;48.738;9.616;2023-04-06T10:42:54;7.03;;;6.35;;
6862;SDS011;3470;48.738;9.616;2023-04-06T10:45:21;8.15;;;6.30;;
6862;SDS011;3470;48.738;9.616;2023-04-06T10:47:53;6.78;;;6.18;;
6862;SDS011;3470;48.738;9.616;2023-04-06T10:50:20;7.40;;;6.68;;
6862;SDS011;3470;48.738;9.616;2023-04-06T10:52:46;7.60;;;6.90;;
6862;SDS011;3470;48.738;9.616;2023-04-06T10:55:15;7.57;;;6.88;;
6862;SDS011;3470;48.738;9.616;2023-04-06T10:57:41;8.02;;;7.32;;
6862;SDS011;3470;48.738;9.616;2023-04-06T11:00:07;8.48;;;7.57;;
6862;SDS011;3470;48.738;9.616;2023-04-06T11:02:34;10.25;;;9.35;;
6862;SDS011;3470;48.738;9.616;2023-04-06T11:05:01;8.07;;;6.95;;
6862;SDS011;3470;48.738;9.616;2023-04-06T11:07:27;7.38;;;6.68;;
6862;SDS011;3470;48.738;9.616;2023-04-06T11:09:55;8.20;;;7.30;;
6862;SDS011;3470;48.738;9.616;2023-04-06T11:12:30;8.45;;;7.65;;
6862;SDS011;3470;48.738;9.616;2023-04-06T11:14:56;8.23;;;7.43;;
6862;SDS011;3470;48.738;9.616;2023-04-06T11:17:29;8.75;;;7.85;;
6862;SDS011;3470;48.738;9.616;2023-04-06T11:19:56;8.98;;;7.82;;
6862;SDS011;3470;48.738;9.616;2023-04-06T11:22:23;7.82;;;7.13;;
6862;SDS011;3470;48.738;9.616;2023-04-06T11:24:49;8.23;;;7.43;;
6862;SDS011;3470;48.738;9.616;2023-04-06T11:27:15;8.95;;;7.88;;
6862;SDS011;3470;48.738;9.616;2023-04-06T11:29:42;8.30;;;7.50;;
6862;SDS011;3470;48.738;9.616;2023-04-06T11:32:08;8.55;;;7.72;;
6862;SDS011;3470;48.738;9.616;2023-04-06T11:34:37;8.70;;;7.65;;
6862;SDS011;3470;48.738;9.616;2023-04-06T11:37:09;8.13;;;7.32;;
6862;SDS011;3470;48.738;9.616;2023-04-06T11:39:40;8.00;;;7.28;;
6862;SDS011;3470;48.738;9.616;2023-04-06T11:42:13;7.30;;;6.60;;
6862;SDS011;3470;48.738;9.616;2023-04-06T11:44:51;5.80;;;5.22;;
6862;SDS011;3470;48.738;9.616;2023-04-06T11:47:19;5.15;;;4.57;;
6862;SDS011;3470;48.738;9.616;2023-04-06T11:49:46;5.40;;;4.85;;
6862;SDS011;3470;48.738;9.616;2023-04-06T11:52:22;5.50;;;5.00;;
6862;SDS011;3470;48.738;9.616;2023-04-06T11:54:50;4.90;;;4.50;;
6862;SDS011;3470;48.738;9.616;2023-04-06T11:57:17;5.43;;;4.97;;
6862;SDS011;3470;48.738;9.616;2023-04-06T11:59:44;5.47;;;4.97;;
6862;SDS011;3470;48.738;9.616;2023-04-06T12:02:10;5.35;;;4.93;;
6862;SDS011;3470;48.738;9.616;2023-04-06T12:04:36;4.95;;;4.55;;
6862;SDS011;3470;48.738;9.616;2023-04-06T12:07:02;5.88;;;5.32;;
6862;SDS011;3470;48.738;9.616;2023-04-06T12:09:28;4.70;;;4.30;;
6862;SDS011;3470;48.738;9.616;2023-04-06T12:11:54;4.88;;;4.47;;
6862;SDS011;3470;48.738;9.616;2023-04-06T12:14:20;5.13;;;4.55;;
6862;SDS011;3470;48.738;9.616;2023-04-06T12:16:46;5.70;;;5.20;;
6862;SDS011;3470;48.738;9.616;2023-04-06T12:19:12;6.88;;;6.00;;
6862;SDS011;3470;48.738;9.616;2023-04-06T12:21:37;6.38;;;5.78;;
6862;SDS011;3470;48.738;9.616;2023-04-06T12:24:06;6.75;;;6.15;;
6862;SDS011;3470;48.738;9.616;2023-04-06T12:26:32;6.90;;;6.30;;
6862;SDS011;3470;48.738;9.616;2023-04-06T12:28:58;6.95;;;6.13;;
6862;SDS011;3470;48.738;9.616;2023-04-06T12:31:31;5.43;;;4.93;;
6862;SDS011;3470;48.738;9.616;2023-04-06T12:33:57;5.53;;;5.03;;
6862;SDS011;3470;48.738;9.616;2023-04-06T12:36:23;7.05;;;4.70;;
6862;SDS011;3470;48.738;9.616;2023-04-06T12:38:50;5.82;;;5.22;;
6862;SDS011;3470;48.738;9.616;2023-04-06T12:41:16;6.30;;;5.65;;
6862;SDS011;3470;48.738;9.616;2023-04-06T12:43:42;7.97;;;6.10;;
6862;SDS011;3470;48.738;9.616;2023-04-06T12:46:09;6.95;;;6.00;;
6862;SDS011;3470;48.738;9.616;2023-04-06T12:48:35;6.65;;;5.95;;
6862;SDS011;3470;48.738;9.616;2023-04-06T12:51:01;7.28;;;5.47;;
6862;SDS011;3470;48.738;9.616;2023-04-06T12:53:28;6.00;;;5.45;;
6862;SDS011;3470;48.738;9.616;2023-04-06T12:55:54;5.93;;;5.43;;
6862;SDS011;3470;48.738;9.616;2023-04-06T12:58:21;6.03;;;5.00;;
6862;SDS011;3470;48.738;9.616;2023-04-06T13:00:48;6.30;;;5.70;;
6862;SDS011;3470;48.738;9.616;2023-04-06T13:03:15;6.43;;;5.82;;
6862;SDS011;3470;48.738;9.616;2023-04-06T13:05:44;6.20;;;5.60;;
6862;SDS011;3470;48.738;9.616;2023-04-06T13:08:10;6.03;;;5.53;;
6862;SDS011;3470;48.738;9.616;2023-04-06T13:10:36;6.60;;;5.95;;
6862;SDS011;3470;48.738;9.616;2023-04-06T13:13:02;5.55;;;5.05;;
6862;SDS011;3470;48.738;9.616;2023-04-06T13:15:28;5.65;;;5.03;;
6862;SDS011;3470;48.738;9.616;2023-04-06T13:17:53;7.43;;;6.05;;
6862;SDS011;3470;48.738;9.616;2023-04-06T13:20:19;5.72;;;5.20;;
6862;SDS011;3470;48.738;9.616;2023-04-06T13:22:45;5.60;;;5.10;;
6862;SDS011;3470;48.738;9.616;2023-04-06T17:24:17;6.03;;;3.60;;
6862;SDS011;3470;48.738;9.616;2023-04-06T17:26:43;4.13;;;3.10;;
6862;SDS011;3470;48.738;9.616;2023-04-06T17:29:08;3.70;;;2.90;;
6862;SDS011;3470;48.738;9.616;2023-04-06T17:31:34;5.60;;;3.40;;
6862;SDS011;3470;48.738;9.616;2023-04-06T17:33:59;3.67;;;3.17;;
6862;SDS011;3470;48.738;9.616;2023-04-06T17:36:25;3.43;;;3.13;;
6862;SDS011;3470;48.738;9.616;2023-04-06T17:38:53;5.90;;;3.70;;
6862;SDS011;3470;48.738;9.616;2023-04-06T17:41:19;5.43;;;3.73;;
6862;SDS011;3470;48.738;9.616;2023-04-06T17:43:45;5.50;;;3.93;;
6862;SDS011;3470;48.738;9.616;2023-04-06T17:46:12;5.80;;;4.50;;
6862;SDS011;3470;48.738;9.616;2023-04-06T17:48:37;6.27;;;4.43;;
6862;SDS011;3470;48.738;9.616;2023-04-06T17:51:03;7.80;;;4.00;;
6862;SDS011;3470;48.738;9.616;2023-04-06T17:53:29;4.43;;;3.57;;
6862;SDS011;3470;48.738;9.616;2023-04-06T17:55:56;4.37;;;3.50;;
6862;SDS011;3470;48.738;9.616;2023-04-06T17:58:22;5.30;;;3.70;;
6862;SDS011;3470;48.738;9.616;2023-04-06T18:00:48;8.13;;;4.20;;
6862;SDS011;3470;48.738;9.616;2023-04-06T18:03:13;9.07;;;4.43;;
6862;SDS011;3470;48.738;9.616;2023-04-06T18:05:39;4.77;;;3.93;;
6862;SDS011;3470;48.738;9.616;2023-04-06T18:08:08;6.60;;;4.57;;
6862;SDS011;3470;48.738;9.616;2023-04-06T18:10:36;6.63;;;4.53;;
6862;SDS011;3470;48.738;9.616;2023-04-06T18:13:03;7.07;;;4.33;;
6862;SDS011;3470;48.738;9.616;2023-04-06T18:15:28;8.10;;;5.30;;
6862;SDS011;3470;48.738;9.616;2023-04-06T18:17:55;4.90;;;4.37;;
6862;SDS011;3470;48.738;9.616;2023-04-06T18:20:21;5.70;;;4.57;;
6862;SDS011;3470;48.738;9.616;2023-04-06T18:22:46;6.07;;;4.23;;
6862;SDS011;3470;48.738;9.616;2023-04-06T18:25:12;6.23;;;4.57;;
6862;SDS011;3470;48.738;9.616;2023-04-06T18:27:40;7.57;;;4.60;;
6862;SDS011;3470;48.738;9.616;2023-04-06T18:30:06;6.97;;;4.80;;
6862;SDS011;3470;48.738;9.616;2023-04-06T18:32:32;6.17;;;4.80;;
6862;SDS011;3470;48.738;9.616;2023-04-06T18:34:58;6.67;;;5.93;;
6862;SDS011;3470;48.738;9.616;2023-04-06T18:37:24;8.23;;;6.77;;
6862;SDS011;3470;48.738;9.616;2023-04-06T18:39:50;6.93;;;5.20;;
6862;SDS011;3470;48.738;9.616;2023-04-06T18:42:16;6.27;;;4.10;;
6862;SDS011;3470;48.738;9.616;2023-04-06T18:44:45;5.50;;;4.53;;
6862;SDS011;3470;48.738;9.616;2023-04-06T18:47:10;9.10;;;6.90;;
6862;SDS011;3470;48.738;9.616;2023-04-06T18:49:36;15.27;;;10.13;;
6862;SDS011;3470;48.738;9.616;2023-04-06T18:52:05;8.63;;;7.20;;
6862;SDS011;3470;48.738;9.616;2023-04-06T18:54:30;7.77;;;6.90;;
6862;SDS011;3470;48.738;9.616;2023-04-06T18:56:56;7.50;;;5.47;;
6862;SDS011;3470;48.738;9.616;2023-04-06T18:59:22;7.80;;;5.37;;
6862;SDS011;3470;48.738;9.616;2023-04-06T19:01:47;5.83;;;4.73;;
6862;SDS011;3470;48.738;9.616;2023-04-06T19:04:17;7.37;;;5.30;;
6862;SDS011;3470;48.738;9.616;2023-04-06T19:06:49;7.70;;;5.10;;
6862;SDS011;3470;48.738;9.616;2023-04-06T19:09:15;8.57;;;5.73;;
6862;SDS011;3470;48.738;9.616;2023-04-06T19:11:41;8.70;;;5.93;;